createdAt,value
2018-09-08T00:02:24.254Z,76.24
2018-09-08T00:04:56.558Z,76.64
2018-09-08T00:07:34.641Z,76.27
2018-09-08T00:10:08.881Z,77.18
2018-09-08T00:12:41.164Z,77.35
2018-09-08T00:15:19.174Z,77.39
2018-09-08T00:17:57.217Z,76.93
2018-09-08T00:20:35.170Z,76.72
2018-09-08T00:23:13.077Z,77.01
2018-09-08T00:25:51.011Z,77.36
2018-09-08T00:28:28.969Z,76.99
2018-09-08T00:31:01.784Z,76.85
2018-09-08T00:33:34.064Z,76.54
2018-09-08T00:36:06.367Z,76.54
2018-09-08T00:38:39.018Z,76.34
2018-09-08T00:41:11.275Z,76.44
2018-09-08T00:43:43.561Z,76.39
2018-09-08T00:46:15.812Z,75.35
2018-09-08T00:48:48.077Z,76.11
2018-09-08T00:51:20.360Z,76.06
2018-09-08T00:53:52.649Z,76.41
2018-09-08T00:56:24.876Z,76.73
2018-09-08T00:59:02.081Z,75.66
2018-09-08T01:01:35.471Z,75.90
2018-09-08T01:04:07.785Z,76.28
2018-09-08T01:06:40.140Z,76.21
2018-09-08T01:09:18.065Z,76.17
2018-09-08T01:11:50.375Z,76.60
2018-09-08T01:14:22.683Z,76.57
2018-09-08T01:16:54.928Z,77.01
2018-09-08T01:19:27.216Z,77.08
2018-09-08T01:21:59.473Z,76.80
2018-09-08T01:24:31.816Z,76.67
2018-09-08T01:27:04.184Z,76.99
2018-09-08T01:29:36.467Z,77.43
2018-09-08T01:32:08.753Z,76.75
2018-09-08T01:34:41.101Z,76.87
2018-09-08T01:37:13.397Z,76.93
2018-09-08T01:39:45.709Z,76.81
2018-09-08T01:42:18.000Z,77.28
2018-09-08T01:44:57.467Z,77.53
2018-09-08T01:47:29.972Z,77.84
2018-09-08T01:50:02.303Z,77.50
2018-09-08T01:52:34.603Z,77.77
2018-09-08T01:55:06.920Z,77.60
2018-09-08T01:57:39.214Z,77.50
2018-09-08T02:00:11.556Z,77.62
2018-09-08T02:02:43.812Z,77.50
2018-09-08T02:05:16.210Z,77.53
2018-09-08T02:07:48.453Z,77.51
2018-09-08T02:10:20.769Z,77.50
2018-09-08T02:12:53.054Z,76.50
2018-09-08T02:15:25.305Z,76.32
2018-09-08T02:17:57.574Z,76.94
2018-09-08T02:20:29.843Z,77.08
2018-09-08T02:23:02.148Z,77.08
2018-09-08T02:25:34.457Z,77.07
2018-09-08T02:28:06.798Z,77.22
2018-09-08T02:30:39.065Z,77.16
2018-09-08T02:33:11.380Z,77.21
2018-09-08T02:35:43.677Z,77.46
2018-09-08T02:38:16.000Z,77.86
2018-09-08T02:40:48.298Z,77.82
2018-09-08T02:43:20.585Z,77.31
2018-09-08T02:45:52.847Z,77.39
2018-09-08T02:48:25.204Z,77.45
2018-09-08T02:50:56.368Z,77.51
2018-09-08T02:53:27.561Z,77.64
2018-09-08T02:55:58.749Z,77.13
2018-09-08T02:58:29.957Z,77.20
2018-09-08T03:01:01.214Z,77.85
2018-09-08T03:03:32.408Z,77.89
2018-09-08T03:06:03.594Z,78.39
2018-09-08T03:08:34.803Z,77.25
2018-09-08T03:11:06.017Z,77.16
2018-09-08T03:13:37.228Z,76.44
2018-09-08T03:16:08.429Z,76.39
2018-09-08T03:18:39.629Z,76.20
2018-09-08T03:21:10.961Z,76.79
2018-09-08T03:23:42.173Z,76.47
2018-09-08T03:26:13.324Z,77.01
2018-09-08T03:28:44.532Z,76.57
2018-09-08T03:31:15.698Z,77.30
2018-09-08T03:33:46.868Z,77.17
2018-09-08T03:36:18.033Z,77.20
2018-09-08T03:38:49.244Z,77.31
2018-09-08T03:41:20.428Z,77.07
2018-09-08T03:43:51.664Z,77.36
2018-09-08T03:46:22.869Z,77.25
2018-09-08T03:48:54.029Z,77.69
2018-09-08T03:51:25.230Z,77.05
2018-09-08T03:53:56.425Z,76.90
2018-09-08T03:56:27.664Z,77.34
2018-09-08T03:58:59.061Z,77.81
2018-09-08T04:01:30.240Z,77.53
2018-09-08T04:04:02.575Z,77.27
2018-09-08T04:06:34.855Z,77.25
2018-09-08T04:09:09.052Z,77.67
2018-09-08T04:11:41.324Z,77.91
2018-09-08T04:14:13.621Z,77.53
2018-09-08T04:16:45.946Z,78.07
2018-09-08T04:19:18.192Z,77.75
2018-09-08T04:21:50.725Z,77.63
2018-09-08T04:24:22.968Z,77.92
2018-09-08T04:26:55.314Z,77.81
2018-09-08T04:29:27.594Z,77.67
2018-09-08T04:31:59.847Z,78.27
2018-09-08T04:34:32.177Z,78.20
2018-09-08T04:37:04.455Z,78.42
2018-09-08T04:39:36.674Z,78.33
2018-09-08T04:42:08.930Z,78.05
2018-09-08T04:44:41.195Z,78.16
2018-09-08T04:47:13.471Z,78.52
2018-09-08T04:49:45.735Z,78.40
2018-09-08T04:52:18.057Z,78.37
2018-09-08T04:54:50.404Z,78.54
2018-09-08T04:57:22.678Z,78.09
2018-09-08T04:59:54.913Z,78.05
2018-09-08T05:02:27.250Z,78.15
2018-09-08T05:04:59.508Z,77.99
2018-09-08T05:07:31.834Z,77.56
2018-09-08T05:10:04.572Z,77.44
2018-09-08T05:12:36.941Z,77.90
2018-09-08T05:15:09.277Z,77.75
2018-09-08T05:17:41.552Z,77.88
2018-09-08T05:20:13.836Z,77.35
2018-09-08T05:22:46.128Z,77.20
2018-09-08T05:25:18.441Z,76.99
2018-09-08T05:27:50.757Z,77.10
2018-09-08T05:30:23.033Z,77.16
2018-09-08T05:32:55.323Z,76.86
2018-09-08T05:35:27.595Z,77.07
2018-09-08T05:37:59.906Z,77.45
2018-09-08T05:40:32.205Z,77.06
2018-09-08T05:43:04.599Z,76.31
2018-09-08T05:45:36.833Z,76.25
2018-09-08T05:48:09.209Z,76.10
2018-09-08T05:50:41.560Z,75.52
2018-09-08T05:53:13.906Z,73.73
2018-09-08T05:55:46.208Z,73.31
2018-09-08T05:58:18.580Z,72.17
2018-09-08T06:00:50.874Z,70.79
2018-09-08T06:03:23.240Z,69.51
2018-09-08T06:05:55.697Z,67.73
2018-09-08T06:08:28.080Z,66.55
2018-09-08T06:11:00.405Z,66.40
2018-09-08T06:13:32.788Z,65.91
2018-09-08T06:16:05.137Z,65.11
2018-09-08T06:18:37.475Z,65.45
2018-09-08T06:21:09.770Z,64.79
2018-09-08T06:23:42.195Z,64.35
2018-09-08T06:26:14.492Z,62.34
2018-09-08T06:28:46.903Z,60.71
2018-09-08T06:31:19.148Z,60.56
2018-09-08T06:33:51.454Z,59.45
2018-09-08T06:36:23.747Z,58.33
2018-09-08T06:38:56.056Z,58.29
2018-09-08T06:41:28.325Z,57.14
2018-09-08T06:44:00.636Z,56.54
2018-09-08T06:46:33.108Z,55.25
2018-09-08T06:49:05.752Z,54.32
2018-09-08T06:51:38.028Z,53.94
2018-09-08T06:54:10.368Z,52.63
2018-09-08T06:56:42.687Z,52.29
2018-09-08T06:59:14.996Z,51.52
2018-09-08T07:01:47.273Z,50.23
2018-09-08T07:04:19.614Z,49.69
2018-09-08T07:06:52.588Z,49.28
2018-09-08T07:09:24.900Z,48.96
2018-09-08T07:15:04.462Z,48.30
2018-09-08T07:18:17.985Z,48.13
2018-09-08T07:21:03.843Z,47.67
2018-09-08T07:23:47.093Z,49.21
2018-09-08T07:26:44.441Z,50.26
2018-09-08T07:29:19.824Z,50.51
2018-09-08T07:31:53.097Z,50.21
2018-09-08T07:34:27.471Z,49.46
2018-09-08T07:37:03.303Z,49.55
2018-09-08T07:39:35.978Z,49.95
2018-09-08T07:42:17.571Z,50.42
2018-09-08T07:44:54.052Z,49.57
2018-09-08T07:47:30.614Z,48.18
2018-09-08T07:50:08.651Z,48.04
2018-09-08T07:52:47.895Z,46.49
2018-09-08T07:55:22.488Z,46.57
2018-09-08T07:57:54.963Z,46.97
2018-09-08T08:00:33.453Z,45.76
2018-09-08T08:03:09.276Z,45.17
2018-09-08T08:05:45.636Z,45.42
2018-09-08T08:08:21.120Z,44.31
2018-09-08T08:10:57.533Z,43.79
2018-09-08T08:13:34.952Z,43.14
2018-09-08T08:16:12.516Z,43.29
2018-09-08T08:18:50.740Z,44.17
2018-09-08T08:21:28.940Z,43.01
2018-09-08T08:26:49.800Z,41.57
2018-09-08T08:29:23.984Z,39.79
2018-09-08T08:31:57.600Z,39.35
2018-09-08T08:34:30.238Z,39.80
2018-09-08T08:37:04.014Z,40.32
2018-09-08T08:39:40.012Z,39.33
2018-09-08T08:42:13.109Z,38.87
2018-09-08T08:44:46.339Z,40.80
2018-09-08T08:47:18.999Z,39.25
2018-09-08T08:50:03.025Z,40.17
2018-09-08T08:52:47.056Z,39.28
2018-09-08T08:55:19.839Z,39.70
2018-09-08T08:57:54.572Z,39.64
2018-09-08T09:00:28.894Z,39.93
2018-09-08T09:03:02.635Z,38.85
2018-09-08T09:05:35.770Z,37.80
2018-09-08T09:08:08.564Z,39.38
2018-09-08T09:10:41.017Z,39.18
2018-09-08T09:13:13.446Z,39.07
2018-09-08T09:15:46.064Z,38.96
2018-09-08T09:18:34.249Z,39.92
2018-09-08T09:21:17.894Z,39.12
2018-09-08T09:25:02.091Z,39.51
2018-09-08T09:27:35.905Z,39.11
2018-09-08T09:30:08.780Z,38.91
2018-09-08T09:32:41.102Z,39.70
2018-09-08T09:35:14.953Z,39.88
2018-09-08T09:37:47.301Z,39.86
2018-09-08T09:40:20.858Z,40.76
2018-09-08T09:42:54.217Z,40.23
2018-09-08T09:45:27.678Z,40.68
2018-09-08T09:48:01.700Z,39.98
2018-09-08T09:50:36.152Z,40.83
2018-09-08T09:53:14.104Z,40.54
2018-09-08T09:55:49.611Z,40.31
2018-09-08T09:58:25.275Z,39.53
2018-09-08T10:01:09.313Z,39.66
2018-09-08T10:03:45.116Z,40.72
2018-09-08T10:10:15.474Z,42.78
2018-09-08T10:12:54.845Z,42.25
2018-09-08T10:15:27.237Z,41.72
2018-09-08T10:17:59.634Z,41.96
2018-09-08T10:20:31.980Z,42.43
2018-09-08T10:23:04.398Z,43.43
2018-09-08T10:25:36.740Z,42.27
2018-09-08T10:28:09.149Z,41.90
2018-09-08T10:30:41.455Z,41.66
2018-09-08T10:33:13.869Z,43.17
2018-09-08T10:35:46.225Z,44.42
2018-09-08T10:38:18.540Z,43.52
2018-09-08T10:40:50.848Z,43.50
2018-09-08T10:43:23.161Z,44.10
2018-09-08T10:45:55.459Z,44.23
2018-09-08T10:48:27.852Z,43.85
2018-09-08T10:51:17.928Z,44.48
2018-09-08T10:53:50.320Z,44.37
2018-09-08T10:56:22.655Z,42.88
2018-09-08T10:58:54.959Z,43.43
2018-09-08T11:01:27.349Z,43.92
2018-09-08T11:03:59.671Z,44.64
2018-09-08T11:06:31.991Z,45.04
2018-09-08T11:09:05.508Z,44.56
2018-09-08T11:11:37.837Z,43.01
2018-09-08T11:14:10.214Z,43.57
2018-09-08T11:16:42.556Z,44.26
2018-09-08T11:19:15.053Z,44.54
2018-09-08T11:21:47.336Z,44.13
2018-09-08T11:24:19.627Z,44.71
2018-09-08T11:26:51.941Z,44.19
2018-09-08T11:29:24.287Z,44.79
2018-09-08T11:31:56.652Z,44.07
2018-09-08T11:34:29.049Z,44.03
2018-09-08T11:37:01.342Z,43.84
2018-09-08T11:39:33.708Z,45.27
2018-09-08T11:42:06.049Z,42.87
2018-09-08T11:44:38.414Z,43.83
2018-09-08T11:47:10.716Z,43.31
2018-09-08T11:49:43.095Z,42.39
2018-09-08T11:52:15.358Z,43.68
2018-09-08T11:54:47.672Z,44.20
2018-09-08T11:57:20.021Z,42.81
2018-09-08T11:59:52.444Z,43.93
2018-09-08T12:02:24.845Z,42.96
2018-09-08T12:04:57.293Z,44.13
2018-09-08T12:07:29.720Z,42.77
2018-09-08T12:10:02.138Z,41.30
2018-09-08T12:12:34.492Z,41.79
2018-09-08T12:15:06.846Z,41.76
2018-09-08T12:17:39.213Z,42.96
2018-09-08T12:20:11.576Z,42.04
2018-09-08T12:22:44.004Z,41.37
2018-09-08T12:25:16.454Z,41.98
2018-09-08T12:27:48.797Z,41.31
2018-09-08T12:30:21.224Z,41.56
2018-09-08T12:32:53.601Z,42.83
2018-09-08T12:35:25.959Z,41.99
2018-09-08T12:37:58.311Z,42.33
2018-09-08T12:40:30.660Z,41.73
2018-09-08T12:43:03.004Z,41.96
2018-09-08T12:45:35.373Z,42.60
2018-09-08T12:48:07.801Z,41.79
2018-09-08T12:50:40.241Z,41.46
2018-09-08T12:53:12.645Z,42.43
2018-09-08T12:55:44.994Z,41.56
2018-09-08T12:58:17.365Z,42.48
2018-09-08T13:00:49.766Z,42.29
2018-09-08T13:03:22.138Z,41.39
2018-09-08T13:05:54.524Z,41.45
2018-09-08T13:08:26.945Z,40.74
2018-09-08T13:10:59.295Z,42.51
2018-09-08T13:13:31.699Z,40.83
2018-09-08T13:16:04.001Z,41.15
2018-09-08T13:18:36.420Z,40.91
2018-09-08T13:21:08.819Z,41.48
2018-09-08T13:23:41.264Z,40.66
2018-09-08T13:26:13.641Z,40.44
2018-09-08T13:28:45.982Z,41.70
2018-09-08T13:31:18.325Z,42.15
2018-09-08T13:33:50.703Z,40.75
2018-09-08T13:36:23.129Z,41.85
2018-09-08T13:38:55.532Z,40.83
2018-09-08T13:41:27.917Z,40.85
2018-09-08T13:44:00.270Z,40.63
2018-09-08T13:46:32.576Z,39.23
2018-09-08T13:49:04.965Z,38.73
2018-09-08T13:51:37.273Z,40.67
2018-09-08T13:54:09.618Z,40.39
2018-09-08T13:56:41.966Z,40.52
2018-09-08T13:59:14.313Z,41.52
2018-09-08T14:01:46.670Z,40.97
2018-09-08T14:04:19.092Z,40.07
2018-09-08T14:06:51.398Z,40.27
2018-09-08T14:09:23.761Z,40.70
2018-09-08T14:11:56.076Z,41.11
2018-09-08T14:14:28.478Z,40.83
2018-09-08T14:17:00.789Z,40.28
2018-09-08T14:19:33.196Z,39.55
2018-09-08T14:22:05.688Z,40.72
2018-09-08T14:24:38.031Z,39.65
2018-09-08T14:27:10.539Z,39.57
2018-09-08T14:29:42.869Z,38.67
2018-09-08T14:32:15.246Z,39.17
2018-09-08T14:34:47.589Z,38.84
2018-09-08T14:37:19.919Z,38.48
2018-09-08T14:39:52.335Z,40.03
2018-09-08T14:42:24.705Z,39.09
2018-09-08T14:44:57.081Z,39.19
2018-09-08T14:47:36.302Z,39.33
2018-09-08T14:50:08.660Z,39.92
2018-09-08T14:52:40.994Z,39.54
2018-09-08T14:55:13.364Z,40.07
2018-09-08T14:57:45.721Z,41.03
2018-09-08T15:00:18.272Z,41.14
2018-09-08T15:02:50.630Z,40.17
2018-09-08T15:05:22.986Z,40.06
2018-09-08T15:07:55.302Z,39.91
2018-09-08T15:10:27.664Z,40.41
2018-09-08T15:13:00.007Z,40.93
2018-09-08T15:15:32.374Z,40.21
2018-09-08T15:18:04.999Z,41.21
2018-09-08T15:20:37.329Z,40.39
2018-09-08T15:23:09.757Z,40.14
2018-09-08T15:25:42.166Z,40.48
2018-09-08T15:28:14.525Z,41.67
2018-09-08T15:30:46.919Z,40.49
2018-09-08T15:33:19.315Z,40.56
2018-09-08T15:35:51.675Z,41.98
2018-09-08T15:38:24.428Z,42.63
2018-09-08T15:40:56.808Z,42.81
2018-09-08T15:43:29.197Z,42.99
2018-09-08T15:46:01.551Z,42.89
2018-09-08T15:48:34.069Z,42.28
2018-09-08T15:51:06.413Z,40.57
2018-09-08T15:53:38.857Z,40.84
2018-09-08T15:56:11.225Z,41.16
2018-09-08T15:58:43.709Z,42.09
2018-09-08T16:01:16.017Z,42.16
2018-09-08T16:03:48.372Z,42.71
2018-09-08T16:06:20.727Z,43.55
2018-09-08T16:08:53.234Z,43.17
2018-09-08T16:11:25.766Z,42.99
2018-09-08T16:13:58.074Z,42.73
2018-09-08T16:16:30.396Z,43.55
2018-09-08T16:19:02.770Z,42.82
2018-09-08T16:21:35.092Z,44.19
2018-09-08T16:24:07.448Z,43.52
2018-09-08T16:26:39.743Z,43.12
2018-09-08T16:29:18.878Z,43.91
2018-09-08T16:31:51.236Z,44.08
2018-09-08T16:34:23.693Z,44.83
2018-09-08T16:36:55.988Z,45.39
2018-09-08T16:39:28.402Z,45.05
2018-09-08T16:42:00.816Z,44.84
2018-09-08T16:44:33.155Z,44.41
2018-09-08T16:47:05.492Z,45.11
2018-09-08T16:49:37.818Z,45.55
2018-09-08T16:52:10.243Z,46.18
2018-09-08T16:54:42.525Z,46.19
2018-09-08T16:57:14.859Z,47.37
2018-09-08T16:59:47.255Z,47.53
2018-09-08T17:02:19.531Z,48.18
2018-09-08T17:04:52.029Z,49.82
2018-09-08T17:07:24.350Z,50.32
2018-09-08T17:09:56.718Z,49.47
2018-09-08T17:12:29.041Z,49.83
2018-09-08T17:15:01.398Z,50.26
2018-09-08T17:17:33.789Z,50.35
2018-09-08T17:20:06.196Z,50.88
2018-09-08T17:22:38.539Z,52.23
2018-09-08T17:25:10.914Z,52.73
2018-09-08T17:27:43.263Z,53.24
2018-09-08T17:30:15.664Z,53.03
2018-09-08T17:32:48.023Z,52.84
2018-09-08T17:35:20.372Z,53.76
2018-09-08T17:37:52.747Z,54.50
2018-09-08T17:40:25.077Z,53.92
2018-09-08T17:42:57.849Z,54.18
2018-09-08T17:45:30.198Z,54.74
2018-09-08T17:48:02.550Z,54.58
2018-09-08T17:50:34.971Z,55.11
2018-09-08T17:53:07.361Z,56.48
2018-09-08T17:55:39.769Z,56.33
2018-09-08T17:58:12.159Z,56.70
2018-09-08T18:00:44.579Z,57.81
2018-09-08T18:03:16.931Z,58.03
2018-09-08T18:05:49.460Z,57.35
2018-09-08T18:08:25.712Z,58.14
2018-09-08T18:10:58.053Z,58.02
2018-09-08T18:13:30.413Z,59.63
2018-09-08T18:16:02.862Z,59.32
2018-09-08T18:18:35.217Z,59.89
2018-09-08T18:21:07.596Z,60.24
2018-09-08T18:23:40.812Z,60.12
2018-09-08T18:26:13.193Z,60.20
2018-09-08T18:28:45.569Z,60.49
2018-09-08T18:31:17.918Z,61.93
2018-09-08T18:33:50.423Z,62.09
2018-09-08T18:36:23.477Z,62.99
2018-09-08T18:38:55.822Z,62.97
2018-09-08T18:41:28.359Z,63.16
2018-09-08T18:44:00.625Z,63.24
2018-09-08T18:46:32.945Z,62.99
2018-09-08T18:49:05.332Z,63.82
2018-09-08T18:51:37.716Z,63.94
2018-09-08T18:54:10.184Z,64.42
2018-09-08T18:56:42.508Z,63.70
2018-09-08T18:59:14.872Z,65.03
2018-09-08T19:01:47.206Z,65.05
2018-09-08T19:04:19.577Z,64.43
2018-09-08T19:06:52.705Z,64.42
2018-09-08T19:09:25.179Z,64.80
2018-09-08T19:11:57.451Z,64.87
2018-09-08T19:14:35.306Z,64.66
2018-09-08T19:17:07.665Z,65.09
2018-09-08T19:19:40.102Z,65.33
2018-09-08T19:22:12.444Z,65.38
2018-09-08T19:24:44.845Z,64.89
2018-09-08T19:27:17.202Z,65.77
2018-09-08T19:29:49.586Z,65.46
2018-09-08T19:32:22.035Z,64.91
2018-09-08T19:35:00.061Z,64.85
2018-09-08T19:37:34.517Z,64.79
2018-09-08T19:40:12.703Z,65.57
2018-09-08T19:42:45.111Z,65.35
2018-09-08T19:45:17.434Z,65.58
2018-09-08T19:47:55.358Z,66.14
2018-09-08T19:50:27.697Z,66.05
2018-09-08T19:53:05.680Z,66.14
2018-09-08T19:55:38.078Z,66.69
2018-09-08T19:59:15.772Z,66.68
2018-09-08T20:01:48.129Z,66.37
2018-09-08T20:04:20.565Z,66.06
2018-09-08T20:06:52.910Z,66.67
2018-09-08T20:09:25.206Z,66.69
2018-09-08T20:11:57.618Z,67.42
2018-09-08T20:14:29.904Z,68.31
2018-09-08T20:17:02.266Z,67.61
2018-09-08T20:19:34.641Z,67.66
2018-09-08T20:22:08.024Z,67.01
2018-09-08T20:24:40.394Z,67.81
2018-09-08T20:27:12.739Z,68.30
2018-09-08T20:29:45.101Z,68.67
2018-09-08T20:32:17.461Z,69.40
2018-09-08T20:34:49.864Z,69.74
2018-09-08T20:37:22.217Z,69.15
2018-09-08T20:39:54.549Z,69.31
2018-09-08T20:42:26.917Z,69.93
2018-09-08T20:44:59.288Z,69.91
2018-09-08T20:47:31.729Z,69.70
2018-09-08T20:50:04.235Z,69.67
2018-09-08T20:52:36.528Z,69.25
2018-09-08T20:55:08.906Z,69.43
2018-09-08T20:57:41.209Z,69.05
2018-09-08T21:00:13.592Z,69.32
2018-09-08T21:02:45.886Z,69.42
2018-09-08T21:05:18.316Z,69.04
2018-09-08T21:07:50.769Z,69.50
2018-09-08T21:10:23.086Z,69.37
2018-09-08T21:12:55.421Z,69.66
2018-09-08T21:15:27.836Z,70.03
2018-09-08T21:18:00.153Z,70.68
2018-09-08T21:20:32.505Z,71.31
2018-09-08T21:23:04.917Z,71.00
2018-09-08T21:25:37.340Z,71.47
2018-09-08T21:28:09.629Z,71.26
2018-09-08T21:30:42.190Z,71.43
2018-09-08T21:33:14.550Z,71.74
2018-09-08T21:35:46.962Z,71.97
2018-09-08T21:38:19.339Z,71.62
2018-09-08T21:40:51.684Z,71.41
2018-09-08T21:43:24.016Z,71.88
2018-09-08T21:45:56.415Z,70.75
2018-09-08T21:48:28.708Z,70.34
2018-09-08T21:51:01.156Z,70.85
2018-09-08T21:53:33.514Z,71.34
2018-09-08T21:56:05.992Z,70.81
2018-09-08T21:58:38.333Z,70.91
2018-09-08T22:01:16.510Z,70.99
2018-09-08T22:03:48.902Z,70.72
2018-09-08T22:06:21.928Z,70.69
2018-09-08T22:08:54.274Z,70.55
2018-09-08T22:11:26.644Z,71.06
2018-09-08T22:13:58.940Z,70.66
2018-09-08T22:16:31.317Z,71.03
2018-09-08T22:19:03.626Z,71.01
2018-09-08T22:21:35.973Z,71.78
2018-09-08T22:24:08.455Z,71.14
2018-09-08T22:26:40.738Z,71.88
2018-09-08T22:29:13.067Z,71.39
2018-09-08T22:31:45.360Z,71.45
2018-09-08T22:34:17.714Z,71.48
2018-09-08T22:36:50.041Z,71.50
2018-09-08T22:39:22.352Z,71.36
2018-09-08T22:41:54.655Z,71.06
2018-09-08T22:44:27.007Z,71.45
2018-09-08T22:46:59.331Z,71.56
2018-09-08T22:49:31.629Z,71.19
2018-09-08T22:52:03.952Z,71.59
2018-09-08T22:54:36.253Z,71.69
2018-09-08T22:57:08.623Z,71.34
2018-09-08T22:59:40.903Z,71.99
2018-09-08T23:02:13.202Z,71.81
2018-09-08T23:04:45.749Z,71.84
2018-09-08T23:07:18.089Z,71.99
2018-09-08T23:09:50.425Z,72.38
2018-09-08T23:12:22.806Z,71.85
2018-09-08T23:14:55.157Z,72.26
2018-09-08T23:17:27.448Z,72.38
2018-09-08T23:19:59.743Z,72.21
2018-09-08T23:22:32.052Z,72.04
2018-09-08T23:25:04.436Z,72.45
2018-09-08T23:27:36.745Z,71.59
2018-09-08T23:30:09.296Z,71.97
2018-09-08T23:32:41.665Z,72.01
2018-09-08T23:35:13.932Z,71.83
2018-09-08T23:37:46.235Z,71.75
2018-09-08T23:40:18.567Z,71.98
2018-09-08T23:42:50.874Z,72.75
2018-09-08T23:45:23.205Z,73.24
2018-09-08T23:47:55.551Z,72.82
2018-09-08T23:50:27.858Z,72.82
2018-09-08T23:53:00.161Z,72.96
2018-09-08T23:55:32.490Z,73.31
2018-09-08T23:58:04.791Z,73.25
